UKV4136 EGPF-EGPR

Flight info

Callsign UKV4136
Flight time N/A
Altitude 10000
Route CLYDE Q602 BRUCE DCT TIR
Aircraft DHC6/L-SDGRY/S

Departure

Time N/A
Airport Glasgow Airport (EGPF)

Arrival

Time 2026-04-22 15:02
Airport Barra Airport (EGPR)
Time Latitude Longitude Altitude Speed Heading
2026-04-22 14:17 56.05510 -5.12915 10491 ft 181 kts 290°
2026-04-22 14:17 56.06048 -5.14947 10486 ft 180 kts 290°
2026-04-22 14:17 56.06584 -5.16973 10491 ft 180 kts 290°
2026-04-22 14:17 56.07125 -5.19014 10484 ft 184 kts 290°
2026-04-22 14:18 56.07673 -5.21080 10484 ft 183 kts 290°
2026-04-22 14:18 56.08218 -5.23140 10488 ft 183 kts 290°
2026-04-22 14:18 56.08764 -5.25200 10491 ft 183 kts 291°
2026-04-22 14:18 56.09304 -5.27259 10489 ft 182 kts 290°
2026-04-22 14:19 56.09842 -5.29321 10486 ft 183 kts 290°
2026-04-22 14:19 56.10381 -5.31392 10489 ft 184 kts 290°
2026-04-22 14:19 56.10922 -5.33457 10484 ft 183 kts 290°
2026-04-22 14:19 56.11464 -5.35521 10483 ft 183 kts 290°
2026-04-22 14:20 56.12548 -5.39674 10476 ft 185 kts 290°
2026-04-22 14:20 56.13089 -5.41752 10479 ft 184 kts 290°
2026-04-22 14:20 56.13628 -5.43826 10479 ft 183 kts 290°
2026-04-22 14:21 56.14695 -5.47969 10472 ft 183 kts 290°
2026-04-22 14:21 56.15230 -5.50045 10473 ft 184 kts 290°
2026-04-22 14:22 56.16287 -5.54201 10475 ft 183 kts 290°
2026-04-22 14:22 56.16814 -5.56270 10472 ft 182 kts 290°
2026-04-22 14:22 56.17865 -5.60411 10472 ft 182 kts 290°
2026-04-22 14:23 56.18388 -5.62471 10474 ft 181 kts 290°
2026-04-22 14:23 56.18907 -5.64526 10471 ft 180 kts 290°
2026-04-22 14:23 56.19423 -5.66577 10470 ft 180 kts 290°
2026-04-22 14:23 56.19938 -5.68626 10465 ft 180 kts 290°
2026-04-22 14:24 56.20452 -5.70668 10473 ft 180 kts 290°
2026-04-22 14:24 56.20966 -5.72714 10472 ft 180 kts 290°
2026-04-22 14:24 56.21480 -5.74763 10471 ft 180 kts 290°
2026-04-22 14:24 56.21994 -5.76811 10471 ft 180 kts 290°
2026-04-22 14:25 56.22507 -5.78856 10473 ft 179 kts 290°
2026-04-22 14:25 56.23017 -5.80900 10470 ft 179 kts 290°
2026-04-22 14:25 56.23525 -5.82944 10469 ft 179 kts 290°
2026-04-22 14:25 56.24034 -5.84985 10475 ft 179 kts 290°
2026-04-22 14:26 56.24540 -5.87024 10477 ft 179 kts 290°
2026-04-22 14:26 56.25049 -5.89063 10470 ft 179 kts 290°
2026-04-22 14:26 56.25558 -5.91101 10467 ft 179 kts 290°
2026-04-22 14:26 56.26067 -5.93140 10474 ft 179 kts 290°
2026-04-22 14:27 56.26574 -5.95179 10468 ft 179 kts 290°
2026-04-22 14:27 56.27079 -5.97219 10472 ft 178 kts 290°
2026-04-22 14:27 56.27583 -5.99253 10470 ft 178 kts 290°
2026-04-22 14:27 56.28089 -6.01295 10476 ft 178 kts 290°
2026-04-22 14:28 56.28593 -6.03336 10472 ft 178 kts 290°
2026-04-22 14:28 56.29098 -6.05380 10475 ft 178 kts 290°
2026-04-22 14:28 56.29599 -6.07418 10472 ft 179 kts 290°
2026-04-22 14:28 56.30107 -6.09461 10485 ft 179 kts 290°
2026-04-22 14:29 56.30616 -6.11530 10476 ft 181 kts 290°
2026-04-22 14:29 56.31124 -6.13602 10476 ft 181 kts 290°
2026-04-22 14:29 56.31633 -6.15675 10475 ft 181 kts 290°
2026-04-22 14:29 56.32143 -6.17748 10476 ft 181 kts 290°
2026-04-22 14:30 56.32652 -6.19829 10477 ft 182 kts 290°
2026-04-22 14:30 56.33157 -6.21916 10479 ft 182 kts 290°
2026-04-22 14:30 56.33667 -6.24009 10476 ft 183 kts 290°
2026-04-22 14:30 56.34182 -6.26121 10471 ft 184 kts 290°
2026-04-22 14:31 56.34698 -6.28227 10473 ft 183 kts 290°
2026-04-22 14:31 56.35210 -6.30315 10476 ft 182 kts 290°
2026-04-22 14:31 56.35719 -6.32394 10469 ft 181 kts 290°
2026-04-22 14:31 56.36228 -6.34469 10477 ft 181 kts 290°
2026-04-22 14:32 56.36735 -6.36543 10474 ft 181 kts 290°
2026-04-22 14:32 56.37241 -6.38617 10476 ft 181 kts 290°
2026-04-22 14:32 56.37745 -6.40689 10469 ft 181 kts 290°
2026-04-22 14:32 56.38253 -6.42768 10474 ft 181 kts 290°
2026-04-22 14:33 56.38757 -6.44839 10473 ft 181 kts 290°
2026-04-22 14:33 56.39261 -6.46915 10473 ft 180 kts 290°
2026-04-22 14:33 56.39766 -6.48993 10470 ft 181 kts 290°
2026-04-22 14:33 56.40272 -6.51067 10471 ft 181 kts 290°
2026-04-22 14:34 56.40776 -6.53144 10470 ft 181 kts 290°
2026-04-22 14:34 56.41281 -6.55222 10470 ft 181 kts 290°
2026-04-22 14:34 56.41784 -6.57296 10472 ft 181 kts 290°
2026-04-22 14:34 56.42288 -6.59375 10471 ft 181 kts 290°
2026-04-22 14:35 56.42794 -6.61454 10473 ft 181 kts 290°
2026-04-22 14:35 56.43301 -6.63535 10473 ft 181 kts 290°
2026-04-22 14:35 56.43806 -6.65617 10475 ft 181 kts 290°
2026-04-22 14:35 56.44312 -6.67702 10470 ft 181 kts 290°
2026-04-22 14:36 56.44816 -6.69787 10468 ft 181 kts 290°
2026-04-22 14:36 56.45319 -6.71872 10471 ft 181 kts 290°
2026-04-22 14:36 56.45822 -6.73956 10468 ft 181 kts 290°
2026-04-22 14:36 56.46325 -6.76040 10467 ft 181 kts 290°
2026-04-22 14:37 56.46828 -6.78126 10470 ft 181 kts 290°
2026-04-22 14:37 56.47330 -6.80208 10472 ft 181 kts 290°
2026-04-22 14:37 56.47835 -6.82295 10472 ft 181 kts 290°
2026-04-22 14:37 56.48339 -6.84385 10471 ft 181 kts 290°
2026-04-22 14:38 56.48843 -6.86481 10471 ft 181 kts 290°
2026-04-22 14:38 56.49345 -6.88575 10471 ft 182 kts 290°
2026-04-22 14:38 56.50038 -6.90492 10466 ft 184 kts 309°
2026-04-22 14:38 56.50899 -6.92225 10464 ft 186 kts 309°
2026-04-22 14:39 56.51764 -6.93974 10464 ft 187 kts 310°
2026-04-22 14:39 56.52645 -6.95758 10357 ft 194 kts 310°
2026-04-22 14:39 56.53541 -6.97574 10224 ft 190 kts 310°
2026-04-22 14:40 56.54968 -7.00475 10000 ft 182 kts 309°
2026-04-22 14:40 56.56086 -7.02755 9819 ft 179 kts 309°
2026-04-22 14:40 56.56912 -7.04443 9685 ft 178 kts 310°
2026-04-22 14:40 56.57732 -7.06128 9550 ft 178 kts 310°
2026-04-22 14:41 56.58549 -7.07811 9419 ft 178 kts 309°
2026-04-22 14:41 56.59362 -7.09491 9287 ft 178 kts 309°
2026-04-22 14:41 56.60175 -7.11177 9151 ft 177 kts 309°
2026-04-22 14:41 56.60988 -7.12864 9025 ft 177 kts 309°
2026-04-22 14:42 56.61798 -7.14552 8893 ft 177 kts 309°
2026-04-22 14:42 56.62607 -7.16241 8768 ft 177 kts 309°
2026-04-22 14:42 56.63416 -7.17931 8638 ft 177 kts 309°
2026-04-22 14:42 56.64224 -7.19623 8492 ft 178 kts 309°
2026-04-22 14:43 56.65038 -7.21334 8291 ft 178 kts 309°
2026-04-22 14:43 56.65842 -7.23022 8098 ft 175 kts 309°
2026-04-22 14:43 56.66633 -7.24692 7894 ft 174 kts 310°
2026-04-22 14:43 56.67416 -7.26354 7691 ft 172 kts 309°
2026-04-22 14:44 56.68194 -7.28009 7494 ft 172 kts 309°
2026-04-22 14:44 56.68967 -7.29662 7295 ft 172 kts 309°
2026-04-22 14:44 56.69741 -7.31319 7096 ft 172 kts 309°
2026-04-22 14:44 56.70513 -7.32976 6908 ft 171 kts 309°
2026-04-22 14:45 56.71282 -7.34634 6697 ft 171 kts 309°
2026-04-22 14:45 56.72048 -7.36292 6488 ft 171 kts 309°
2026-04-22 14:45 56.72809 -7.37948 6281 ft 170 kts 309°
2026-04-22 14:45 56.73564 -7.39609 6074 ft 170 kts 309°
2026-04-22 14:46 56.74313 -7.41269 5868 ft 169 kts 309°
2026-04-22 14:46 56.75057 -7.42931 5664 ft 169 kts 309°
2026-04-22 14:46 56.75793 -7.44593 5461 ft 169 kts 309°
2026-04-22 14:46 56.76525 -7.46259 5255 ft 168 kts 309°
2026-04-22 14:47 56.77252 -7.47925 5047 ft 168 kts 309°
2026-04-22 14:47 56.77974 -7.49589 4831 ft 167 kts 309°
2026-04-22 14:47 56.78695 -7.51245 4631 ft 166 kts 309°
2026-04-22 14:47 56.79413 -7.52889 4422 ft 166 kts 309°
2026-04-22 14:48 56.80129 -7.54531 4219 ft 165 kts 309°
2026-04-22 14:48 56.80847 -7.56163 4011 ft 165 kts 309°
2026-04-22 14:48 56.81564 -7.57791 3803 ft 164 kts 309°
2026-04-22 14:48 56.82280 -7.59413 3608 ft 164 kts 309°
2026-04-22 14:49 56.82753 -7.60486 3465 ft 163 kts 309°
2026-04-22 14:49 56.83467 -7.62097 3257 ft 163 kts 309°
2026-04-22 14:49 56.84181 -7.63702 3051 ft 163 kts 309°
2026-04-22 14:49 56.84895 -7.65305 2844 ft 163 kts 309°
2026-04-22 14:50 56.85609 -7.66906 2632 ft 162 kts 309°
2026-04-22 14:50 56.86320 -7.68505 2429 ft 162 kts 309°
2026-04-22 14:50 56.87030 -7.70112 2228 ft 162 kts 309°
2026-04-22 14:50 56.87740 -7.71715 2033 ft 161 kts 309°
2026-04-22 14:51 56.88413 -7.73256 2029 ft 150 kts 309°
2026-04-22 14:51 56.89049 -7.74718 2020 ft 144 kts 309°
2026-04-22 14:51 56.89673 -7.76139 2024 ft 142 kts 309°
2026-04-22 14:51 56.90289 -7.77546 2016 ft 141 kts 309°
2026-04-22 14:52 56.90900 -7.78944 2017 ft 140 kts 309°
2026-04-22 14:52 56.91509 -7.80336 2016 ft 140 kts 309°
2026-04-22 14:52 56.92116 -7.81726 2018 ft 140 kts 309°
2026-04-22 14:52 56.92723 -7.83113 2015 ft 139 kts 309°
2026-04-22 14:53 56.93324 -7.84493 2020 ft 138 kts 309°
2026-04-22 14:53 56.94088 -7.85357 2017 ft 129 kts 358°
2026-04-22 14:53 56.94977 -7.85326 2019 ft 127 kts
2026-04-22 14:53 56.95718 -7.84679 2021 ft 117 kts 51°
2026-04-22 14:54 56.96308 -7.83639 2023 ft 118 kts 50°
2026-04-22 14:54 56.96878 -7.82547 2018 ft 119 kts 51°
2026-04-22 14:54 56.97329 -7.81330 2023 ft 115 kts 73°
2026-04-22 14:54 56.97537 -7.79920 2020 ft 115 kts 77°
2026-04-22 14:55 56.97767 -7.78508 2020 ft 116 kts 78°
2026-04-22 14:55 56.97996 -7.77097 2027 ft 116 kts 77°
2026-04-22 14:55 56.98224 -7.75676 2026 ft 117 kts 77°
2026-04-22 14:55 56.98446 -7.74296 2019 ft 109 kts 78°
2026-04-22 14:56 56.98657 -7.73010 2018 ft 103 kts 78°
2026-04-22 14:56 56.98860 -7.71789 2021 ft 98 kts 77°
2026-04-22 14:56 56.99064 -7.70609 2031 ft 99 kts 77°
2026-04-22 14:56 56.99276 -7.69375 2037 ft 104 kts 77°
2026-04-22 14:57 56.99495 -7.68080 2044 ft 108 kts 77°
2026-04-22 14:57 56.99718 -7.66752 2039 ft 108 kts 77°
2026-04-22 14:57 56.99933 -7.65444 2048 ft 105 kts 80°
2026-04-22 14:57 57.00074 -7.64132 2009 ft 108 kts 83°
2026-04-22 14:58 57.00165 -7.62826 1997 ft 96 kts 88°
2026-04-22 14:58 57.00235 -7.61607 1836 ft 97 kts 87°
2026-04-22 14:58 57.00307 -7.60380 1702 ft 95 kts 86°
2026-04-22 14:58 57.00385 -7.59174 1564 ft 95 kts 86°
2026-04-22 14:59 57.00472 -7.57981 1456 ft 94 kts 84°
2026-04-22 14:59 57.00599 -7.56810 1359 ft 93 kts 81°
2026-04-22 14:59 57.00743 -7.55650 1222 ft 94 kts 78°
2026-04-22 14:59 57.00925 -7.54509 1119 ft 92 kts 76°
2026-04-22 15:00 57.01114 -7.53414 1051 ft 88 kts 77°
2026-04-22 15:00 57.01277 -7.52378 959 ft 86 kts 76°
2026-04-22 15:00 57.01446 -7.51326 908 ft 88 kts 73°
2026-04-22 15:00 57.01623 -7.50273 756 ft 85 kts 77°
2026-04-22 15:01 57.01756 -7.49233 564 ft 81 kts 81°
2026-04-22 15:01 57.01844 -7.48218 433 ft 81 kts 77°
2026-04-22 15:01 57.01978 -7.47227 368 ft 84 kts 75°
2026-04-22 15:01 57.02162 -7.46272 369 ft 71 kts 74°
2026-04-22 15:02 57.02298 -7.45427 164 ft 67 kts 73°
2026-04-22 15:02 57.02428 -7.44675 7 ft 52 kts 73°
2026-04-22 15:02 57.02496 -7.44271 4 ft 4 kts 72°
2026-04-22 15:02 57.02509 -7.44191 3 ft 8 kts 75°
2026-04-22 15:03 57.02530 -7.44091 2 ft 8 kts 12°
2026-04-22 15:03 57.02542 -7.44219 -1 ft 15 kts 268°
2026-04-22 15:03 57.02542 -7.44418 5 ft 16 kts 270°
2026-04-22 15:03 57.02531 -7.44652 4 ft 20 kts 267°
2026-04-22 15:04 57.02526 -7.44813 7 ft 9 kts 250°
2026-04-22 15:04 57.02501 -7.44894 8 ft 0 kts 210°